Time;durP1;ratioP1;P1;durP2;ratioP2;P2;SDS_P1;SDS_P2;PMS_P1;PMS_P2;Temp;Humidity;BMP_temperature;BMP_pressure;BME280_temperature;BME280_humidity;BME280_pressure;Samples;Min_cycle;Max_cycle;Signal;HPM_P1;HPM_P2
2021/10/03 00:00:18;;;;;;;9.65;4.97;;;;;;;9.77;95.81;94966.38;5076240;28;20048;-77
2021/10/03 00:03:10;;;;;;;10.90;5.18;;;;;;;9.76;95.89;94980.56;5061882;28;20049;-77
2021/10/03 00:05:37;;;;;;;10.27;5.38;;;;;;;9.73;95.88;94981.13;5076259;28;20044;-77
2021/10/03 00:08:05;;;;;;;8.95;5.15;;;;;;;9.76;95.87;94985.81;5075220;28;20124;-77
2021/10/03 00:10:32;;;;;;;9.07;4.97;;;;;;;9.65;95.91;94973.81;5058756;28;20050;-77
2021/10/03 00:13:04;;;;;;;9.05;4.82;;;;;;;9.60;96.08;94981.75;5059173;28;20048;-77
2021/10/03 00:15:36;;;;;;;9.30;4.50;;;;;;;9.48;96.79;94979.47;5074326;28;20186;-77
2021/10/03 00:18:03;;;;;;;10.80;5.10;;;;;;;9.46;96.77;94971.09;5069048;28;20040;-77
2021/10/03 00:20:28;;;;;;;9.23;4.97;;;;;;;9.47;96.22;94973.44;5076567;28;20036;-76
2021/10/03 00:22:54;;;;;;;9.43;4.57;;;;;;;9.46;96.40;94965.84;5076881;28;20071;-77
2021/10/03 00:25:21;;;;;;;8.63;4.63;;;;;;;9.40;96.89;94967.72;5067350;28;20044;-78
2021/10/03 00:27:48;;;;;;;9.15;5.15;;;;;;;9.36;97.05;94969.31;5068363;28;20060;-77
2021/10/03 00:30:15;;;;;;;6.85;4.28;;;;;;;9.50;96.52;94978.13;5075803;28;20071;-77
2021/10/03 00:32:42;;;;;;;7.68;4.60;;;;;;;9.50;96.04;94972.88;5076085;28;20041;-77
2021/10/03 00:35:08;;;;;;;7.47;4.40;;;;;;;9.46;95.89;94971.88;5051009;28;20044;-77
2021/10/03 00:37:34;;;;;;;10.35;4.10;;;;;;;9.37;95.67;94957.78;5057583;28;20033;-77
2021/10/03 00:39:59;;;;;;;7.47;4.25;;;;;;;9.32;95.87;94957.78;5064647;28;20043;-77
2021/10/03 00:42:26;;;;;;;7.32;4.28;;;;;;;9.34;96.23;94947.81;5076856;28;20041;-77
2021/10/03 00:44:51;;;;;;;11.82;4.65;;;;;;;9.37;96.17;94947.25;5076635;28;20062;-77
2021/10/03 00:47:17;;;;;;;8.32;4.15;;;;;;;9.41;95.82;94952.75;5054890;28;20049;-77
2021/10/03 00:49:43;;;;;;;9.50;4.47;;;;;;;9.32;95.65;94939.41;5075482;28;20070;-77
2021/10/03 00:52:09;;;;;;;9.15;4.50;;;;;;;9.34;96.02;94942.56;5075303;28;20045;-77
2021/10/03 00:54:36;;;;;;;8.00;4.13;;;;;;;9.31;95.75;94940.47;5076602;28;20335;-77
2021/10/03 00:57:01;;;;;;;9.93;4.15;;;;;;;9.36;95.28;94940.44;5079484;28;20040;-77
2021/10/03 00:59:27;;;;;;;7.85;4.28;;;;;;;9.38;95.45;94937.53;5079135;28;20425;-77
2021/10/03 01:01:53;;;;;;;7.72;4.40;;;;;;;9.37;94.96;94942.00;5079988;28;20044;-77
2021/10/03 01:04:18;;;;;;;7.22;3.95;;;;;;;9.33;95.10;94938.38;5053668;28;20045;-77
2021/10/03 01:06:44;;;;;;;10.98;4.32;;;;;;;9.32;95.23;94939.41;5059818;28;20517;-77
2021/10/03 01:09:10;;;;;;;7.43;4.22;;;;;;;9.34;95.29;94932.06;5059549;28;20410;-77
2021/10/03 01:11:36;;;;;;;7.03;3.92;;;;;;;9.45;94.63;94938.81;5080262;28;20047;-77
2021/10/03 01:14:01;;;;;;;10.25;4.00;;;;;;;9.39;94.42;94932.00;5080026;28;20082;-77
2021/10/03 01:16:27;;;;;;;7.13;4.05;;;;;;;9.32;94.75;94923.66;5078330;28;20119;-78
2021/10/03 01:18:55;;;;;;;9.98;3.92;;;;;;;9.30;94.75;94920.53;5060820;28;20093;-77
2021/10/03 01:21:21;;;;;;;10.18;3.97;;;;;;;9.29;94.50;94924.22;5079984;28;20079;-77
2021/10/03 01:23:47;;;;;;;7.00;3.92;;;;;;;9.25;94.69;94920.56;5060712;28;20045;-78
2021/10/03 01:26:12;;;;;;;10.45;3.85;;;;;;;9.21;94.74;94922.97;5079467;28;20052;-78
2021/10/03 01:28:38;;;;;;;8.68;4.57;;;;;;;9.16;94.61;94915.91;5084346;28;20052;-77
2021/10/03 01:31:06;;;;;;;7.55;4.32;;;;;;;9.19;94.37;94922.44;5067532;28;20124;-77
2021/10/03 01:33:32;;;;;;;5.85;3.88;;;;;;;9.12;94.69;94920.16;5072598;28;20104;-78
2021/10/03 01:35:58;;;;;;;7.45;4.15;;;;;;;9.06;94.88;94910.72;5079296;28;20067;-77
2021/10/03 01:38:24;;;;;;;8.75;4.20;;;;;;;9.07;95.13;94912.31;5079291;28;20044;-78
2021/10/03 01:40:51;;;;;;;6.82;3.60;;;;;;;9.03;94.99;94913.91;5078686;28;20127;-77
2021/10/03 01:43:17;;;;;;;6.50;3.70;;;;;;;9.12;94.43;94901.78;5073374;28;20041;-77
2021/10/03 01:45:44;;;;;;;8.10;3.80;;;;;;;9.07;94.10;94906.28;5070157;28;20055;-77
2021/10/03 01:48:14;;;;;;;7.35;3.83;;;;;;;8.91;95.34;94893.25;5078053;28;20044;-77
2021/10/03 01:51:01;;;;;;;6.45;4.15;;;;;;;8.83;95.64;94902.50;5059867;28;20037;-77
2021/10/03 01:53:30;;;;;;;6.63;4.00;;;;;;;8.74;95.69;94900.72;5055776;28;20052;-77
2021/10/03 01:55:58;;;;;;;7.32;3.70;;;;;;;8.64;96.88;94909.44;5065319;28;20054;-77
2021/10/03 01:58:27;;;;;;;7.40;3.92;;;;;;;8.72;96.13;94895.75;5079932;28;20051;-77
2021/10/03 02:00:57;;;;;;;6.57;3.72;;;;;;;8.77;95.50;94892.31;5079063;28;20056;-78
2021/10/03 02:03:22;;;;;;;6.43;3.97;;;;;;;8.64;96.33;94893.69;5076709;28;20120;-77
2021/10/03 02:05:49;;;;;;;6.80;3.97;;;;;;;8.65;96.85;94890.81;5076134;28;20061;-78
2021/10/03 02:08:16;;;;;;;8.65;4.00;;;;;;;8.60;96.22;94887.44;5084673;28;20055;-77
2021/10/03 02:10:45;;;;;;;6.97;3.95;;;;;;;8.49;96.52;94887.50;5093341;28;20119;-78
2021/10/03 02:13:11;;;;;;;7.20;4.20;;;;;;;8.30;96.83;94878.63;5079006;28;20045;-77
2021/10/03 02:15:39;;;;;;;8.05;4.25;;;;;;;8.44;96.90;94887.50;5073330;28;20044;-77
2021/10/03 02:18:13;;;;;;;7.38;3.67;;;;;;;8.44;96.45;94882.25;5078957;28;20051;-77
2021/10/03 02:20:41;;;;;;;6.00;3.92;;;;;;;8.30;97.49;94889.13;5079162;28;20036;-78
2021/10/03 02:23:08;;;;;;;8.35;3.90;;;;;;;8.13;98.17;94879.78;5058222;28;20040;-78
2021/10/03 02:25:34;;;;;;;7.78;3.92;;;;;;;8.04;98.15;94878.75;5056464;28;20429;-77
2021/10/03 02:28:02;;;;;;;8.43;3.92;;;;;;;8.24;98.04;94879.72;5060608;28;20048;-77
2021/10/03 02:30:28;;;;;;;6.03;3.72;;;;;;;8.18;98.12;94880.81;5078191;28;20115;-78
2021/10/03 02:32:54;;;;;;;6.40;3.70;;;;;;;8.07;98.25;94880.81;5079301;28;20122;-77
2021/10/03 02:35:19;;;;;;;6.57;3.97;;;;;;;8.05;98.21;94877.69;5057139;28;20096;-78
2021/10/03 02:37:45;;;;;;;6.32;3.90;;;;;;;8.05;97.78;94885.56;5075783;28;20049;-77
2021/10/03 02:40:14;;;;;;;7.28;3.80;;;;;;;7.93;98.60;94874.59;5060981;28;20044;-77
2021/10/03 02:42:40;;;;;;;7.40;3.88;;;;;;;8.14;98.30;94876.06;5078604;28;20033;-77
2021/10/03 02:45:08;;;;;;;6.90;3.75;;;;;;;8.20;97.09;94876.06;5078403;28;20052;-77
2021/10/03 02:47:35;;;;;;;7.18;4.00;;;;;;;8.15;97.61;94882.13;5061582;28;20041;-77
2021/10/03 02:50:01;;;;;;;7.25;3.95;;;;;;;8.05;97.58;94869.84;5040175;28;20299;-77
2021/10/03 02:52:26;;;;;;;10.35;4.05;;;;;;;7.97;98.46;94868.56;5060401;28;20041;-77
2021/10/03 02:54:52;;;;;;;9.02;4.07;;;;;;;8.10;97.62;94869.03;5075509;28;20044;-77
2021/10/03 02:57:18;;;;;;;9.35;4.18;;;;;;;8.06;97.84;94858.31;5059634;28;20096;-77
2021/10/03 02:59:43;;;;;;;8.13;4.00;;;;;;;8.03;98.03;94864.09;5076795;28;20042;-77
2021/10/03 03:02:09;;;;;;;5.60;3.70;;;;;;;7.95;98.87;94857.56;5076662;28;20044;-77
2021/10/03 03:04:34;;;;;;;9.65;4.40;;;;;;;8.04;97.99;94855.16;5059071;28;20049;-77
2021/10/03 03:07:00;;;;;;;8.23;3.70;;;;;;;7.97;97.95;94852.84;5053588;28;20055;-77
2021/10/03 03:09:25;;;;;;;6.78;4.00;;;;;;;7.92;98.24;94854.72;5060005;28;20048;-77
2021/10/03 03:11:51;;;;;;;7.18;3.70;;;;;;;7.88;98.49;94853.66;5077202;28;20177;-78
2021/10/03 03:14:17;;;;;;;8.73;3.90;;;;;;;7.82;98.79;94852.13;5058909;28;20059;-78
2021/10/03 03:16:52;;;;;;;6.15;3.70;;;;;;;7.97;98.52;94849.44;5076530;28;20040;-77
2021/10/03 03:19:19;;;;;;;5.65;3.67;;;;;;;7.98;97.93;94854.41;5076337;28;20036;-76
2021/10/03 03:21:45;;;;;;;7.63;4.13;;;;;;;7.94;97.89;94855.22;5057404;28;20052;-77
2021/10/03 03:24:11;;;;;;;7.28;3.83;;;;;;;7.93;97.80;94843.16;5056118;28;20037;-77
2021/10/03 03:26:38;;;;;;;6.57;3.70;;;;;;;7.88;97.73;94845.81;5077250;28;20564;-77
2021/10/03 03:29:04;;;;;;;6.75;3.80;;;;;;;7.83;97.73;94849.25;5057814;28;20128;-77
2021/10/03 03:31:29;;;;;;;7.22;3.72;;;;;;;7.83;98.45;94845.81;5075497;28;20044;-77
2021/10/03 03:33:56;;;;;;;6.28;3.92;;;;;;;7.76;98.31;94848.75;5039576;28;20048;-77
2021/10/03 03:36:21;;;;;;;6.47;3.80;;;;;;;7.63;99.00;94839.59;5052179;28;20040;-77
2021/10/03 03:38:47;;;;;;;7.47;4.00;;;;;;;7.74;98.87;94837.72;5075387;28;20157;-77
2021/10/03 03:41:13;;;;;;;5.80;3.17;;;;;;;7.80;97.93;94834.84;5058812;28;20045;-77
2021/10/03 03:43:40;;;;;;;13.45;3.72;;;;;;;7.75;97.90;94837.47;5075439;28;20123;-78
2021/10/03 03:46:06;;;;;;;7.05;3.95;;;;;;;7.64;98.78;94830.69;5074197;28;20040;-77
2021/10/03 03:48:32;;;;;;;7.65;3.72;;;;;;;7.67;98.56;94835.41;5057133;28;20052;-77
2021/10/03 03:50:58;;;;;;;7.60;3.85;;;;;;;7.71;98.77;94836.41;5076485;28;20047;-77
2021/10/03 03:53:23;;;;;;;7.40;3.90;;;;;;;7.68;98.43;94826.47;5075482;28;20036;-77
2021/10/03 03:55:49;;;;;;;7.00;3.67;;;;;;;7.82;97.82;94825.94;5069140;28;20041;-77
2021/10/03 03:58:15;;;;;;;6.68;3.80;;;;;;;7.77;97.46;94830.13;5051214;28;20040;-76
2021/10/03 04:00:40;;;;;;;7.20;3.95;;;;;;;7.70;97.86;94828.84;5055834;28;20058;-77
2021/10/03 04:03:06;;;;;;;6.60;3.65;;;;;;;7.68;98.61;94826.47;5070725;28;20055;-77
2021/10/03 04:05:32;;;;;;;5.78;3.50;;;;;;;7.78;98.21;94829.06;5074680;28;20036;-77
2021/10/03 04:07:57;;;;;;;6.13;3.45;;;;;;;7.75;97.22;94821.75;5074913;28;20044;-77
2021/10/03 04:10:23;;;;;;;6.43;3.97;;;;;;;7.73;97.23;94823.06;5075730;28;20106;-77
2021/10/03 04:12:48;;;;;;;5.53;3.20;;;;;;;7.51;97.58;94826.78;5076836;28;20045;-77
2021/10/03 04:15:14;;;;;;;6.28;3.63;;;;;;;7.53;98.19;94829.13;5074811;28;20063;-77
2021/10/03 04:17:40;;;;;;;8.73;3.70;;;;;;;7.56;98.26;94833.88;5076788;28;20414;-77
2021/10/03 04:20:06;;;;;;;6.65;4.10;;;;;;;7.49;98.29;94828.13;5076224;28;20052;-77
2021/10/03 04:22:32;;;;;;;6.20;3.70;;;;;;;7.58;98.47;94821.28;5076665;28;20659;-77
2021/10/03 04:24:58;;;;;;;8.52;4.05;;;;;;;7.56;97.74;94823.41;5053529;28;20048;-77
2021/10/03 04:27:24;;;;;;;7.25;3.80;;;;;;;7.55;98.03;94827.06;5076033;28;20568;-77
2021/10/03 04:29:50;;;;;;;8.15;4.03;;;;;;;7.49;98.75;94828.13;5078563;28;20097;-77
2021/10/03 04:32:15;;;;;;;5.85;3.47;;;;;;;7.46;98.94;94830.22;5072539;28;20576;-77
2021/10/03 04:34:41;;;;;;;8.60;3.67;;;;;;;7.48;98.21;94810.84;5054620;28;20033;-77
2021/10/03 04:37:07;;;;;;;7.53;4.15;;;;;;;7.41;98.72;94822.38;5070877;28;20470;-77
2021/10/03 04:39:33;;;;;;;6.47;3.95;;;;;;;7.40;99.02;94820.81;5072271;28;20055;-77
2021/10/03 04:41:59;;;;;;;6.70;3.80;;;;;;;7.41;99.20;94821.59;5079130;28;20091;-77
2021/10/03 04:44:24;;;;;;;8.18;4.13;;;;;;;7.48;98.41;94823.94;5078947;28;20044;-77
2021/10/03 04:46:50;;;;;;;9.68;4.00;;;;;;;7.44;99.29;94821.84;5060439;28;20055;-77
2021/10/03 04:49:16;;;;;;;6.78;3.40;;;;;;;7.50;98.43;94819.22;5078985;28;20047;-77
2021/10/03 04:51:41;;;;;;;6.20;3.67;;;;;;;7.55;98.26;94819.19;5079011;28;20044;-77
2021/10/03 04:54:07;;;;;;;7.75;3.95;;;;;;;7.56;97.38;94818.16;5079479;28;20455;-77
2021/10/03 04:56:32;;;;;;;5.57;3.53;;;;;;;7.44;97.79;94821.84;5062038;28;20089;-78
2021/10/03 04:58:58;;;;;;;8.65;3.80;;;;;;;7.54;98.24;94815.00;5080042;28;20076;-77
2021/10/03 05:01:24;;;;;;;6.68;3.72;;;;;;;7.62;96.98;94822.31;5060897;28;20041;-77
2021/10/03 05:03:50;;;;;;;7.35;4.00;;;;;;;7.56;96.93;94818.94;5075368;28;20044;-77
2021/10/03 05:06:15;;;;;;;8.10;3.65;;;;;;;7.48;97.93;94821.31;5079424;28;20115;-78
2021/10/03 05:08:41;;;;;;;8.23;3.78;;;;;;;7.49;97.92;94822.91;5084355;28;20044;-77
2021/10/03 05:11:07;;;;;;;6.65;3.97;;;;;;;7.60;97.02;94819.16;5080027;28;20048;-77
2021/10/03 05:13:33;;;;;;;6.10;3.60;;;;;;;7.62;97.18;94822.31;5079558;28;20043;-77
2021/10/03 05:15:59;;;;;;;5.80;3.47;;;;;;;7.57;97.34;94819.72;5063396;28;20037;-78
2021/10/03 05:18:25;;;;;;;6.82;3.95;;;;;;;7.55;96.99;94816.59;5079805;28;20044;-77
2021/10/03 05:20:51;;;;;;;8.20;3.95;;;;;;;7.55;97.40;94819.19;5060589;28;20558;-77
2021/10/03 05:23:17;;;;;;;5.97;3.60;;;;;;;7.53;98.05;94819.47;5061868;28;20044;-77
2021/10/03 05:25:43;;;;;;;6.70;3.70;;;;;;;7.57;97.76;94817.09;5074484;28;20041;-77
2021/10/03 05:28:09;;;;;;;6.35;3.90;;;;;;;7.57;97.70;94819.72;5060585;28;20051;-77
2021/10/03 05:30:35;;;;;;;7.28;3.90;;;;;;;7.52;98.57;94823.13;5078151;28;20052;-77
2021/10/03 05:33:00;;;;;;;7.13;3.90;;;;;;;7.59;97.68;94815.00;5076676;28;20482;-77
2021/10/03 05:35:25;;;;;;;7.93;3.53;;;;;;;7.62;97.59;94812.63;5078457;28;20662;-77
2021/10/03 05:37:51;;;;;;;7.55;3.63;;;;;;;7.55;97.47;94819.97;5076327;28;20071;-77
2021/10/03 05:40:18;;;;;;;5.78;3.55;;;;;;;7.74;97.30;94822.81;5060472;28;20045;-78
2021/10/03 05:42:43;;;;;;;5.60;3.30;;;;;;;7.84;96.49;94813.34;5079999;28;20032;-77
2021/10/03 05:45:09;;;;;;;6.60;3.63;;;;;;;7.83;96.40;94817.00;5085277;28;20059;-78
2021/10/03 05:47:35;;;;;;;6.45;3.60;;;;;;;7.75;97.42;94815.72;5049247;28;20040;-77
2021/10/03 05:50:01;;;;;;;7.40;3.60;;;;;;;7.89;97.34;94821.19;5078738;28;20051;-77
2021/10/03 05:52:27;;;;;;;5.95;3.50;;;;;;;7.92;96.65;94820.66;5078973;28;20067;-78
2021/10/03 05:54:52;;;;;;;9.35;3.85;;;;;;;7.90;97.65;94818.28;5078398;28;20041;-77
2021/10/03 05:57:18;;;;;;;6.72;3.78;;;;;;;7.91;97.53;94811.22;5078428;28;20041;-78
2021/10/03 05:59:45;;;;;;;6.38;3.53;;;;;;;8.02;97.45;94815.34;5077394;28;20040;-77
2021/10/03 06:02:10;;;;;;;8.30;4.28;;;;;;;8.04;97.42;94813.22;5056411;28;20071;-77
2021/10/03 06:04:36;;;;;;;6.15;3.83;;;;;;;8.03;97.66;94803.81;5078152;28;20130;-77
2021/10/03 06:07:02;;;;;;;6.88;3.80;;;;;;;8.20;96.99;94800.06;5051708;28;20047;-77
2021/10/03 06:09:28;;;;;;;6.22;3.80;;;;;;;8.23;97.80;94800.31;5076486;28;20052;-77
2021/10/03 06:11:54;;;;;;;6.20;3.80;;;;;;;8.23;97.92;94799.50;5077605;28;20036;-77
2021/10/03 06:14:19;;;;;;;5.85;3.60;;;;;;;8.30;97.92;94805.22;5074611;28;20037;-78
2021/10/03 06:16:45;;;;;;;7.10;3.67;;;;;;;8.34;98.23;94798.41;5059410;28;20045;-77
2021/10/03 06:19:11;;;;;;;7.70;3.92;;;;;;;8.42;98.88;94803.06;5072755;28;20033;-77
2021/10/03 06:21:39;;;;;;;8.52;3.95;;;;;;;8.38;99.51;94802.03;5060115;28;20045;-77
2021/10/03 06:24:06;;;;;;;9.80;4.10;;;;;;;8.55;98.56;94796.47;5056165;28;20040;-77
2021/10/03 06:26:31;;;;;;;6.03;3.78;;;;;;;8.61;99.70;94794.59;5078380;28;20529;-77
2021/10/03 06:28:57;;;;;;;7.47;3.70;;;;;;;8.60;98.88;94795.63;5077059;28;20052;-78
2021/10/03 06:31:22;;;;;;;6.93;4.20;;;;;;;8.49;99.76;94787.84;5060226;28;20052;-78
2021/10/03 06:33:48;;;;;;;6.90;3.90;;;;;;;8.53;100.00;94792.53;5071574;28;20551;-78
2021/10/03 06:36:15;;;;;;;9.10;4.10;;;;;;;8.59;100.00;94796.69;5075711;28;20028;-78
2021/10/03 06:38:40;;;;;;;6.68;3.97;;;;;;;8.64;100.00;94796.66;5075354;28;20094;-78
2021/10/03 06:41:06;;;;;;;6.80;4.13;;;;;;;8.66;99.91;94797.16;5060487;28;20074;-77
2021/10/03 06:43:35;;;;;;;7.00;4.00;;;;;;;8.70;100.00;94794.78;5061559;28;20108;-77
2021/10/03 06:46:05;;;;;;;6.38;3.75;;;;;;;8.78;100.00;94804.69;5070083;28;20041;-77
2021/10/03 06:48:31;;;;;;;8.15;3.72;;;;;;;8.80;100.00;94803.34;5078262;28;20040;-78
2021/10/03 06:50:57;;;;;;;7.28;4.05;;;;;;;8.88;99.97;94803.78;5076048;28;20040;-78
2021/10/03 06:53:22;;;;;;;7.47;4.10;;;;;;;8.94;100.00;94807.97;5055776;28;20048;-77
2021/10/03 06:55:48;;;;;;;6.82;3.85;;;;;;;9.00;100.00;94798.97;5076274;28;20051;-78
2021/10/03 06:58:13;;;;;;;6.97;4.00;;;;;;;9.07;100.00;94802.06;5077956;28;20036;-77
2021/10/03 07:00:39;;;;;;;8.75;3.90;;;;;;;9.16;100.00;94795.13;5059077;28;20048;-77
2021/10/03 07:03:04;;;;;;;7.20;3.95;;;;;;;9.23;100.00;94788.81;5073663;28;20044;-77
2021/10/03 07:05:30;;;;;;;6.35;3.85;;;;;;;9.32;100.00;94790.56;5077398;28;20041;-77
2021/10/03 07:07:56;;;;;;;7.65;4.10;;;;;;;9.44;100.00;94795.41;5059033;28;20048;-77
2021/10/03 07:10:21;;;;;;;8.93;4.30;;;;;;;9.76;100.00;94801.88;5077142;28;20059;-77
2021/10/03 07:12:48;;;;;;;7.55;4.18;;;;;;;10.01;100.00;94807.88;5076194;28;20064;-77
2021/10/03 07:15:13;;;;;;;6.95;3.90;;;;;;;10.50;95.75;94804.09;5068235;28;20585;-77
2021/10/03 07:17:39;;;;;;;7.68;3.72;;;;;;;11.13;92.23;94803.91;5059501;28;20040;-78
2021/10/03 07:20:06;;;;;;;7.38;3.80;;;;;;;11.19;94.49;94808.00;5076608;28;20105;-77
2021/10/03 07:22:32;;;;;;;7.10;3.60;;;;;;;11.05;95.54;94810.63;5078239;28;20600;-78
2021/10/03 07:24:57;;;;;;;6.22;3.78;;;;;;;10.94;96.58;94811.88;5072078;28;20133;-77
2021/10/03 07:27:23;;;;;;;8.02;4.18;;;;;;;10.93;97.22;94805.81;5058948;28;20059;-77
2021/10/03 07:29:49;;;;;;;7.85;3.80;;;;;;;10.94;98.06;94803.97;5076311;28;20045;-77
2021/10/03 07:32:14;;;;;;;6.28;3.33;;;;;;;10.91;98.69;94808.72;5065561;28;20367;-78
2021/10/03 07:34:40;;;;;;;7.18;4.00;;;;;;;10.97;98.46;94806.03;5044288;28;20090;-77
2021/10/03 07:37:05;;;;;;;7.18;3.67;;;;;;;11.09;98.66;94803.69;5074630;28;20051;-78
2021/10/03 07:39:34;;;;;;;7.35;3.92;;;;;;;11.14;98.56;94800.97;5075624;28;21111;-77
2021/10/03 07:42:01;;;;;;;7.55;3.90;;;;;;;11.25;98.73;94791.84;5076568;28;20071;-77
2021/10/03 07:44:26;;;;;;;7.13;3.75;;;;;;;11.39;98.67;94801.59;5075985;28;20119;-77
2021/10/03 07:46:52;;;;;;;7.53;3.90;;;;;;;11.54;98.48;94793.41;5041621;28;20094;-77
2021/10/03 07:49:18;;;;;;;5.70;3.40;;;;;;;11.84;95.90;94796.53;5070196;28;20702;-78
2021/10/03 07:51:46;;;;;;;6.20;3.70;;;;;;;12.13;93.73;94792.81;5074244;28;20036;-77
2021/10/03 07:54:12;;;;;;;6.95;3.53;;;;;;;12.31;93.28;94793.75;5066374;28;20064;-77
2021/10/03 07:56:38;;;;;;;5.75;3.50;;;;;;;12.91;88.58;94784.72;5068094;28;20216;-77
2021/10/03 07:59:03;;;;;;;7.13;3.70;;;;;;;13.30;85.67;94796.44;5075922;28;20040;-77
2021/10/03 08:01:29;;;;;;;6.10;3.28;;;;;;;13.78;84.92;94800.22;5058110;28;20098;-77
2021/10/03 08:03:55;;;;;;;5.60;3.10;;;;;;;14.20;81.75;94805.16;5064753;28;20072;-77
2021/10/03 08:06:21;;;;;;;6.53;3.20;;;;;;;14.03;83.96;94801.38;5054949;28;20590;-77
2021/10/03 08:08:47;;;;;;;5.32;3.15;;;;;;;13.87;85.44;94808.19;5056164;28;20067;-77
2021/10/03 08:11:13;;;;;;;5.18;2.85;;;;;;;13.96;84.17;94816.91;5080530;28;20040;-77
2021/10/03 08:13:39;;;;;;;5.63;3.30;;;;;;;14.02;83.85;94814.91;5073471;28;20509;-77
2021/10/03 08:16:06;;;;;;;6.15;3.00;;;;;;;14.46;79.28;94817.63;5059963;28;20048;-76
2021/10/03 08:18:31;;;;;;;4.63;2.92;;;;;;;14.57;81.80;94824.19;5050875;28;20044;-75
2021/10/03 08:20:57;;;;;;;7.10;3.22;;;;;;;14.66;81.47;94822.34;5065793;28;20122;-76
2021/10/03 08:23:22;;;;;;;4.85;3.20;;;;;;;15.14;76.59;94815.28;5065417;28;20045;-76
2021/10/03 08:25:49;;;;;;;4.88;2.88;;;;;;;15.38;75.98;94803.38;5068002;28;20098;-76
2021/10/03 08:28:15;;;;;;;5.43;3.42;;;;;;;15.32;76.69;94805.41;5066962;28;20113;-76
2021/10/03 08:30:41;;;;;;;5.65;3.42;;;;;;;15.82;73.79;94801.34;5062738;28;20048;-76
2021/10/03 08:33:07;;;;;;;4.63;3.00;;;;;;;16.08;71.02;94798.56;5065202;28;20711;-76
2021/10/03 08:35:34;;;;;;;6.30;3.28;;;;;;;16.25;73.41;94800.31;5068216;28;20049;-77
2021/10/03 08:38:00;;;;;;;6.30;3.50;;;;;;;16.17;75.05;94803.03;5033725;28;20070;-77
2021/10/03 08:40:26;;;;;;;6.45;3.30;;;;;;;16.64;69.69;94802.88;5068756;28;20394;-77
2021/10/03 08:42:52;;;;;;;6.45;3.40;;;;;;;16.85;70.01;94802.06;5069057;28;20048;-77
2021/10/03 08:45:17;;;;;;;6.32;3.33;;;;;;;16.94;69.66;94805.47;5069013;28;20086;-78
2021/10/03 08:47:43;;;;;;;6.75;3.47;;;;;;;16.93;70.59;94793.28;5054174;28;20041;-77
2021/10/03 08:50:12;;;;;;;5.70;3.55;;;;;;;16.79;73.36;94799.63;5066390;28;20105;-77
2021/10/03 08:52:39;;;;;;;6.35;3.35;;;;;;;17.37;63.12;94790.94;5067945;28;20052;-77
2021/10/03 08:55:07;;;;;;;5.38;3.38;;;;;;;17.80;66.96;94799.50;5068081;28;20049;-76
2021/10/03 08:57:32;;;;;;;6.30;3.17;;;;;;;17.80;67.28;94802.97;5049541;28;20466;-77
2021/10/03 09:00:10;;;;;;;8.07;3.30;;;;;;;17.73;64.41;94794.75;5069585;28;20060;-79
2021/10/03 09:02:52;;;;;;;4.97;2.97;;;;;;;17.88;64.37;94795.19;5050666;28;20052;-78
2021/10/03 09:05:18;;;;;;;5.85;2.80;;;;;;;18.33;60.19;94786.28;5069628;28;20041;-77
2021/10/03 09:08:12;;;;;;;5.78;3.20;;;;;;;18.72;57.81;94786.63;5071954;28;20048;-77
2021/10/03 09:10:55;;;;;;;4.95;3.10;;;;;;;19.36;50.27;94779.56;5057354;28;20123;-77
2021/10/03 09:13:30;;;;;;;4.88;2.83;;;;;;;19.61;50.22;94786.63;5053832;28;20051;-77
2021/10/03 09:16:14;;;;;;;5.03;2.97;;;;;;;19.82;48.01;94781.81;5055366;28;20072;-78
2021/10/03 09:18:53;;;;;;;5.78;2.95;;;;;;;19.87;47.33;94789.59;5038348;28;20072;-77
2021/10/03 09:21:34;;;;;;;6.13;3.30;;;;;;;20.14;46.66;94787.13;5039154;28;20043;-77
2021/10/03 09:24:02;;;;;;;7.68;2.95;;;;;;;20.26;45.49;94783.56;5067614;28;20032;-77
2021/10/03 09:26:28;;;;;;;4.88;2.88;;;;;;;20.32;45.00;94792.09;5055100;28;20041;-78
2021/10/03 09:28:54;;;;;;;4.55;2.70;;;;;;;20.45;45.11;94790.06;5053445;28;20046;-77
2021/10/03 09:31:21;;;;;;;5.28;3.10;;;;;;;20.45;44.85;94785.47;5078007;28;20060;-77
2021/10/03 09:33:55;;;;;;;7.38;3.20;;;;;;;20.50;45.75;94787.91;5060879;28;20068;-77
2021/10/03 09:36:25;;;;;;;;;;;;;;;20.65;45.58;94788.19;5050847;28;20087;-77
2021/10/03 09:39:08;;;;;;;6.13;3.58;;;;;;;20.74;45.40;94783.41;5073124;28;19931;-78
2021/10/03 09:41:36;;;;;;;7.93;4.47;;;;;;;21.01;44.45;94778.19;5073521;28;20057;-77
2021/10/03 09:44:14;;;;;;;6.13;3.35;;;;;;;21.22;43.30;94781.25;5073703;28;20090;-78
2021/10/03 09:46:52;;;;;;;6.97;3.47;;;;;;;21.56;44.52;94768.09;5064967;28;20067;-78
2021/10/03 09:49:27;;;;;;;4.88;3.05;;;;;;;21.79;41.63;94767.28;5046599;28;20078;-77
2021/10/03 09:51:55;;;;;;;7.55;3.22;;;;;;;21.94;42.40;94763.69;5047480;28;20041;-78
2021/10/03 09:54:22;;;;;;;5.40;3.30;;;;;;;22.08;41.37;94767.72;5072602;28;20768;-76
2021/10/03 09:56:50;;;;;;;6.13;3.08;;;;;;;22.05;40.73;94763.06;5038239;28;20133;-77
2021/10/03 09:59:17;;;;;;;5.50;3.42;;;;;;;22.62;40.49;94779.94;5047214;28;20044;-76
2021/10/03 10:01:45;;;;;;;7.32;3.28;;;;;;;22.62;40.72;94769.22;5062645;28;20535;-77
2021/10/03 10:04:13;;;;;;;6.50;3.22;;;;;;;22.54;41.19;94761.44;5066344;28;20568;-75
2021/10/03 10:06:39;;;;;;;5.28;3.30;;;;;;;23.02;39.79;94770.44;5060917;28;20053;-77
2021/10/03 10:09:08;;;;;;;4.05;2.92;;;;;;;24.06;38.47;94766.38;5069904;28;20064;-78
2021/10/03 10:11:40;;;;;;;6.63;3.45;;;;;;;23.97;39.16;94762.09;5070222;28;20052;-76
2021/10/03 10:14:08;;;;;;;5.15;3.25;;;;;;;24.45;39.30;94760.44;5051309;28;20486;-77
2021/10/03 10:16:47;;;;;;;5.07;3.15;;;;;;;24.19;37.75;94762.22;5069932;28;20055;-77
2021/10/03 10:19:33;;;;;;;5.80;3.45;;;;;;;24.27;37.62;94758.44;5069121;28;20521;-77
2021/10/03 10:22:20;;;;;;;6.10;3.42;;;;;;;23.45;39.85;94758.59;5069794;28;20058;-76
2021/10/03 10:24:50;;;;;;;7.53;3.60;;;;;;;23.66;39.58;94748.03;5068179;28;20052;-77
2021/10/03 10:27:18;;;;;;;7.18;3.50;;;;;;;24.25;37.08;94749.97;5052883;28;20135;-77
2021/10/03 10:30:02;;;;;;;6.55;3.83;;;;;;;24.85;36.81;94753.31;5067202;28;20064;-77
2021/10/03 10:32:33;;;;;;;7.07;3.80;;;;;;;25.55;36.72;94755.78;5068684;28;20044;-77
2021/10/03 10:35:10;;;;;;;7.65;3.75;;;;;;;26.29;37.45;94748.00;5066240;28;20498;-77
2021/10/03 10:37:55;;;;;;;7.53;3.25;;;;;;;26.42;35.39;94746.44;5068212;28;20044;-79
2021/10/03 10:42:53;;;;;;;8.05;3.50;;;;;;;27.07;35.25;94740.78;5069714;28;20094;-77
2021/10/03 10:45:27;;;;;;;5.53;3.45;;;;;;;27.46;33.00;94728.97;5061892;28;20052;-77
2021/10/03 10:48:08;;;;;;;5.53;3.50;;;;;;;27.76;33.50;94727.56;5050162;28;20045;-78
2021/10/03 10:50:42;;;;;;;5.30;3.50;;;;;;;28.33;34.43;94722.78;5071519;28;20056;-78
2021/10/03 10:53:26;;;;;;;;;;;;;;;28.41;31.50;94718.81;5070544;28;20597;-78
2021/10/03 10:56:11;;;;;;;5.50;3.30;;;;;;;28.63;31.58;94724.00;5067981;28;19956;-79
2021/10/03 10:59:02;;;;;;;4.63;3.17;;;;;;;28.79;31.42;94726.13;5068014;28;20036;-79
2021/10/03 11:01:30;;;;;;;5.30;3.35;;;;;;;28.59;31.64;94734.88;5059657;28;20707;-79
2021/10/03 11:03:59;;;;;;;6.13;3.03;;;;;;;28.44;29.34;94723.44;5052462;28;20041;-77
2021/10/03 11:06:27;;;;;;;6.80;3.33;;;;;;;28.12;28.82;94718.38;5066239;28;20040;-76
2021/10/03 11:08:58;;;;;;;4.78;3.10;;;;;;;28.15;28.70;94723.75;5061370;28;20120;-76
2021/10/03 11:11:26;;;;;;;5.50;3.22;;;;;;;28.16;27.50;94719.88;5066980;28;20040;-77
2021/10/03 11:13:54;;;;;;;5.07;3.20;;;;;;;28.29;29.79;94711.25;5052737;28;20041;-77
2021/10/03 11:16:20;;;;;;;4.70;3.00;;;;;;;28.37;28.12;94709.97;5067281;28;20036;-77
2021/10/03 11:18:52;;;;;;;4.75;3.10;;;;;;;28.63;28.69;94708.56;5070440;28;20044;-77
2021/10/03 11:21:26;;;;;;;5.35;2.80;;;;;;;29.16;27.51;94708.22;5069665;28;20095;-76
2021/10/03 11:23:54;;;;;;;4.95;3.13;;;;;;;29.26;27.96;94709.25;5049627;28;20051;-76
2021/10/03 11:26:23;;;;;;;4.68;3.15;;;;;;;29.49;27.10;94706.56;5050590;28;20127;-77
2021/10/03 11:28:57;;;;;;;5.05;3.05;;;;;;;29.79;27.36;94712.28;5032265;28;20224;-76
2021/10/03 11:31:47;;;;;;;5.28;3.30;;;;;;;30.45;25.68;94707.28;5063816;28;20044;-77
2021/10/03 11:34:44;;;;;;;7.43;3.30;;;;;;;29.99;25.64;94704.22;5051382;28;20057;-77
2021/10/03 11:37:16;;;;;;;5.07;3.40;;;;;;;30.56;25.14;94703.16;5050094;28;20415;-77
2021/10/03 11:39:51;;;;;;;4.43;3.10;;;;;;;29.83;25.54;94705.66;5049284;28;20040;-77
2021/10/03 11:42:37;;;;;;;4.93;3.30;;;;;;;30.26;27.56;94701.41;5032279;28;20068;-77
2021/10/03 11:45:21;;;;;;;5.05;3.05;;;;;;;30.52;26.25;94701.69;5058496;28;20060;-77